sensor_id;sensor_type;location;lat;lon;timestamp;pressure;altitude;pressure_sealevel;temperature;humidity
31331;BME280;34067;39.548;-76.088;2023-02-23T00:01:25;101312.79;;;5.49;69.82
31331;BME280;34067;39.548;-76.088;2023-02-23T00:03:55;101301.11;;;6.56;67.80
31331;BME280;34067;39.548;-76.088;2023-02-23T00:06:26;101287.34;;;5.35;70.15
31331;BME280;34067;39.548;-76.088;2023-02-23T00:08:55;101292.55;;;5.89;72.23
31331;BME280;34067;39.548;-76.088;2023-02-23T00:11:23;101310.17;;;5.19;72.40
31331;BME280;34067;39.548;-76.088;2023-02-23T00:13:51;101309.59;;;5.95;71.03
31331;BME280;34067;39.548;-76.088;2023-02-23T00:16:21;101307.90;;;5.55;71.23
31331;BME280;34067;39.548;-76.088;2023-02-23T00:18:51;101312.43;;;6.04;69.33
31331;BME280;34067;39.548;-76.088;2023-02-23T00:21:21;101315.73;;;6.53;66.65
31331;BME280;34067;39.548;-76.088;2023-02-23T00:23:51;101310.37;;;5.65;66.54
31331;BME280;34067;39.548;-76.088;2023-02-23T00:26:22;101300.97;;;6.55;64.98
31331;BME280;34067;39.548;-76.088;2023-02-23T00:28:52;101270.94;;;6.55;64.26
31331;BME280;34067;39.548;-76.088;2023-02-23T00:31:21;101262.90;;;7.52;62.40
31331;BME280;34067;39.548;-76.088;2023-02-23T00:33:50;101258.19;;;6.80;62.19
31331;BME280;34067;39.548;-76.088;2023-02-23T00:36:19;101255.57;;;7.01;62.05
31331;BME280;34067;39.548;-76.088;2023-02-23T00:38:52;101265.97;;;6.78;62.14
31331;BME280;34067;39.548;-76.088;2023-02-23T00:41:21;101274.67;;;7.89;61.78
31331;BME280;34067;39.548;-76.088;2023-02-23T00:43:50;101276.20;;;7.09;62.02
31331;BME280;34067;39.548;-76.088;2023-02-23T00:46:20;101285.43;;;5.95;66.51
31331;BME280;34067;39.548;-76.088;2023-02-23T00:48:50;101279.50;;;5.20;69.07
31331;BME280;34067;39.548;-76.088;2023-02-23T00:51:18;101281.82;;;6.64;65.86
31331;BME280;34067;39.548;-76.088;2023-02-23T00:53:47;101288.06;;;6.33;66.69
31331;BME280;34067;39.548;-76.088;2023-02-23T00:56:15;101280.09;;;6.36;67.00
31331;BME280;34067;39.548;-76.088;2023-02-23T00:58:44;101299.49;;;6.21;66.49
31331;BME280;34067;39.548;-76.088;2023-02-23T01:01:13;101307.17;;;6.78;65.27
31331;BME280;34067;39.548;-76.088;2023-02-23T01:03:42;101288.86;;;6.59;66.10
31331;BME280;34067;39.548;-76.088;2023-02-23T01:06:13;101272.59;;;6.71;63.21
31331;BME280;34067;39.548;-76.088;2023-02-23T01:08:44;101264.70;;;7.11;63.55
31331;BME280;34067;39.548;-76.088;2023-02-23T01:11:15;101255.54;;;7.35;62.54
31331;BME280;34067;39.548;-76.088;2023-02-23T01:13:44;101253.33;;;7.11;63.54
31331;BME280;34067;39.548;-76.088;2023-02-23T01:16:15;101253.85;;;7.20;62.19
31331;BME280;34067;39.548;-76.088;2023-02-23T01:18:44;101236.90;;;5.74;64.42
31331;BME280;34067;39.548;-76.088;2023-02-23T01:21:18;101235.93;;;6.65;64.63
31331;BME280;34067;39.548;-76.088;2023-02-23T01:23:47;101257.64;;;5.87;65.75
31331;BME280;34067;39.548;-76.088;2023-02-23T01:26:17;101249.70;;;6.26;65.92
31331;BME280;34067;39.548;-76.088;2023-02-23T01:28:49;101241.28;;;7.35;64.49
31331;BME280;34067;39.548;-76.088;2023-02-23T01:31:17;101222.78;;;6.46;63.27
31331;BME280;34067;39.548;-76.088;2023-02-23T01:33:45;101232.96;;;6.72;61.61
31331;BME280;34067;39.548;-76.088;2023-02-23T01:36:13;101237.66;;;7.19;61.50
31331;BME280;34067;39.548;-76.088;2023-02-23T01:38:42;101236.44;;;7.42;60.44
31331;BME280;34067;39.548;-76.088;2023-02-23T01:41:10;101227.66;;;7.08;61.55
31331;BME280;34067;39.548;-76.088;2023-02-23T01:43:54;101238.32;;;7.44;60.45
31331;BME280;34067;39.548;-76.088;2023-02-23T01:46:23;101251.68;;;7.83;59.39
31331;BME280;34067;39.548;-76.088;2023-02-23T01:48:52;101240.80;;;7.69;59.82
31331;BME280;34067;39.548;-76.088;2023-02-23T01:51:24;101241.61;;;7.31;60.07
31331;BME280;34067;39.548;-76.088;2023-02-23T01:53:57;101260.42;;;7.38;60.49
31331;BME280;34067;39.548;-76.088;2023-02-23T01:56:30;101242.04;;;6.53;61.31
31331;BME280;34067;39.548;-76.088;2023-02-23T01:59:04;101236.31;;;6.58;61.64
31331;BME280;34067;39.548;-76.088;2023-02-23T02:01:34;101233.22;;;6.36;62.29
31331;BME280;34067;39.548;-76.088;2023-02-23T02:04:03;101229.30;;;5.60;63.72
31331;BME280;34067;39.548;-76.088;2023-02-23T02:06:33;101217.52;;;6.44;62.19
31331;BME280;34067;39.548;-76.088;2023-02-23T02:09:05;101226.50;;;6.83;61.94
31331;BME280;34067;39.548;-76.088;2023-02-23T02:11:36;101222.25;;;6.56;62.03
31331;BME280;34067;39.548;-76.088;2023-02-23T02:14:07;101217.76;;;6.76;61.81
31331;BME280;34067;39.548;-76.088;2023-02-23T02:16:51;101215.74;;;6.01;62.92
31331;BME280;34067;39.548;-76.088;2023-02-23T02:20:06;101229.65;;;5.93;64.78
31331;BME280;34067;39.548;-76.088;2023-02-23T02:23:15;101235.20;;;6.48;62.16
31331;BME280;34067;39.548;-76.088;2023-02-23T02:25:56;101233.35;;;6.15;62.13
31331;BME280;34067;39.548;-76.088;2023-02-23T02:28:45;101217.88;;;6.15;63.10
31331;BME280;34067;39.548;-76.088;2023-02-23T02:31:32;101225.68;;;6.64;61.75
31331;BME280;34067;39.548;-76.088;2023-02-23T02:36:26;101231.49;;;7.54;61.96
31331;BME280;34067;39.548;-76.088;2023-02-23T02:39:04;101227.90;;;6.65;60.59
31331;BME280;34067;39.548;-76.088;2023-02-23T02:41:45;101233.25;;;7.74;59.20
31331;BME280;34067;39.548;-76.088;2023-02-23T02:44:20;101242.23;;;7.75;60.00
31331;BME280;34067;39.548;-76.088;2023-02-23T02:46:56;101237.91;;;7.53;60.41
31331;BME280;34067;39.548;-76.088;2023-02-23T02:49:31;101229.94;;;6.51;61.83
31331;BME280;34067;39.548;-76.088;2023-02-23T02:52:06;101229.40;;;6.56;62.84
31331;BME280;34067;39.548;-76.088;2023-02-23T02:54:39;101219.28;;;6.85;61.71
31331;BME280;34067;39.548;-76.088;2023-02-23T02:57:10;101214.00;;;7.01;60.59
31331;BME280;34067;39.548;-76.088;2023-02-23T02:59:43;101203.28;;;6.76;61.64
31331;BME280;34067;39.548;-76.088;2023-02-23T03:02:16;101205.76;;;7.54;61.70
31331;BME280;34067;39.548;-76.088;2023-02-23T03:04:45;101199.96;;;7.18;59.96
31331;BME280;34067;39.548;-76.088;2023-02-23T03:07:20;101205.46;;;7.89;60.29
31331;BME280;34067;39.548;-76.088;2023-02-23T03:09:55;101202.20;;;7.37;59.87
31331;BME280;34067;39.548;-76.088;2023-02-23T03:12:32;101186.92;;;7.66;60.08
31331;BME280;34067;39.548;-76.088;2023-02-23T03:15:19;101173.24;;;7.18;59.73
31331;BME280;34067;39.548;-76.088;2023-02-23T03:17:58;101177.59;;;6.72;61.59
31331;BME280;34067;39.548;-76.088;2023-02-23T03:20:38;101183.71;;;7.34;60.93
31331;BME280;34067;39.548;-76.088;2023-02-23T03:23:15;101178.80;;;7.71;59.59
31331;BME280;34067;39.548;-76.088;2023-02-23T03:25:50;101174.32;;;7.46;60.04
31331;BME280;34067;39.548;-76.088;2023-02-23T03:28:25;101156.60;;;7.77;59.18
31331;BME280;34067;39.548;-76.088;2023-02-23T03:31:04;101163.40;;;7.10;60.87
31331;BME280;34067;39.548;-76.088;2023-02-23T03:33:42;101159.25;;;6.64;61.55
31331;BME280;34067;39.548;-76.088;2023-02-23T03:36:14;101149.68;;;6.77;61.33
31331;BME280;34067;39.548;-76.088;2023-02-23T03:38:48;101142.74;;;6.53;61.44
31331;BME280;34067;39.548;-76.088;2023-02-23T03:41:22;101136.84;;;6.62;60.53
31331;BME280;34067;39.548;-76.088;2023-02-23T03:43:56;101126.78;;;7.31;61.00
31331;BME280;34067;39.548;-76.088;2023-02-23T03:46:29;101119.91;;;6.53;62.47
31331;BME280;34067;39.548;-76.088;2023-02-23T03:49:03;101116.61;;;7.39;61.44
31331;BME280;34067;39.548;-76.088;2023-02-23T03:51:34;101105.70;;;6.57;62.65
31331;BME280;34067;39.548;-76.088;2023-02-23T03:54:09;101093.45;;;6.07;62.64
31331;BME280;34067;39.548;-76.088;2023-02-23T03:56:42;101097.34;;;7.01;62.41
31331;BME280;34067;39.548;-76.088;2023-02-23T03:59:11;101098.33;;;6.89;61.87
31331;BME280;34067;39.548;-76.088;2023-02-23T04:01:42;101097.08;;;7.20;61.16
31331;BME280;34067;39.548;-76.088;2023-02-23T04:04:12;101089.86;;;7.47;60.82
31331;BME280;34067;39.548;-76.088;2023-02-23T04:06:44;101083.80;;;7.17;60.52
31331;BME280;34067;39.548;-76.088;2023-02-23T04:09:14;101078.72;;;6.50;61.56
31331;BME280;34067;39.548;-76.088;2023-02-23T04:11:48;101071.21;;;6.88;60.69
31331;BME280;34067;39.548;-76.088;2023-02-23T04:14:24;101047.86;;;7.39;60.87
31331;BME280;34067;39.548;-76.088;2023-02-23T04:16:54;101049.04;;;7.01;61.82
31331;BME280;34067;39.548;-76.088;2023-02-23T04:19:26;101028.70;;;6.44;62.72
31331;BME280;34067;39.548;-76.088;2023-02-23T04:21:54;101031.43;;;6.62;63.41
31331;BME280;34067;39.548;-76.088;2023-02-23T04:24:22;101042.65;;;6.27;63.70
31331;BME280;34067;39.548;-76.088;2023-02-23T04:26:50;101052.46;;;6.53;63.28
31331;BME280;34067;39.548;-76.088;2023-02-23T04:29:19;101042.36;;;6.60;62.65
31331;BME280;34067;39.548;-76.088;2023-02-23T04:31:46;101037.78;;;7.12;62.19
31331;BME280;34067;39.548;-76.088;2023-02-23T04:34:15;101039.81;;;7.21;62.58
31331;BME280;34067;39.548;-76.088;2023-02-23T04:36:43;101035.94;;;6.98;61.65
31331;BME280;34067;39.548;-76.088;2023-02-23T04:39:10;101013.26;;;7.33;60.56
31331;BME280;34067;39.548;-76.088;2023-02-23T04:41:37;101006.84;;;7.38;60.42
31331;BME280;34067;39.548;-76.088;2023-02-23T04:44:06;101023.57;;;7.27;59.98
31331;BME280;34067;39.548;-76.088;2023-02-23T04:46:34;101042.68;;;7.01;61.32
31331;BME280;34067;39.548;-76.088;2023-02-23T04:49:01;101048.43;;;5.69;63.37
31331;BME280;34067;39.548;-76.088;2023-02-23T04:51:30;101056.48;;;6.08;66.33
31331;BME280;34067;39.548;-76.088;2023-02-23T04:53:59;101058.79;;;5.42;69.62
31331;BME280;34067;39.548;-76.088;2023-02-23T04:56:27;101060.78;;;4.75;78.39
31331;BME280;34067;39.548;-76.088;2023-02-23T04:58:55;101070.51;;;4.32;75.70
31331;BME280;34067;39.548;-76.088;2023-02-23T05:01:24;101055.61;;;5.32;72.44
31331;BME280;34067;39.548;-76.088;2023-02-23T05:03:51;101055.40;;;4.96;75.06
31331;BME280;34067;39.548;-76.088;2023-02-23T05:06:19;101072.03;;;4.69;76.73
31331;BME280;34067;39.548;-76.088;2023-02-23T05:08:47;101073.33;;;3.05;80.19
31331;BME280;34067;39.548;-76.088;2023-02-23T05:11:15;101068.85;;;4.66;78.13
31331;BME280;34067;39.548;-76.088;2023-02-23T05:13:44;101068.84;;;4.91;78.38
31331;BME280;34067;39.548;-76.088;2023-02-23T05:16:12;101066.28;;;5.11;79.04
31331;BME280;34067;39.548;-76.088;2023-02-23T05:18:40;101069.93;;;3.78;81.06
31331;BME280;34067;39.548;-76.088;2023-02-23T05:21:09;101056.01;;;3.45;82.08
31331;BME280;34067;39.548;-76.088;2023-02-23T05:23:37;101060.45;;;4.62;79.12
31331;BME280;34067;39.548;-76.088;2023-02-23T05:26:07;101042.84;;;3.86;77.94
31331;BME280;34067;39.548;-76.088;2023-02-23T05:28:37;101037.90;;;5.99;73.00
31331;BME280;34067;39.548;-76.088;2023-02-23T05:31:05;101040.61;;;5.87;72.13
31331;BME280;34067;39.548;-76.088;2023-02-23T05:33:35;101041.45;;;5.16;74.59
31331;BME280;34067;39.548;-76.088;2023-02-23T05:36:05;101045.57;;;5.67;76.21
31331;BME280;34067;39.548;-76.088;2023-02-23T05:38:33;101062.20;;;4.67;76.13
31331;BME280;34067;39.548;-76.088;2023-02-23T05:41:05;101056.25;;;4.30;81.82
31331;BME280;34067;39.548;-76.088;2023-02-23T05:43:32;101055.02;;;4.24;82.07
31331;BME280;34067;39.548;-76.088;2023-02-23T05:46:04;101059.88;;;4.33;83.43
31331;BME280;34067;39.548;-76.088;2023-02-23T05:48:32;101048.58;;;4.93;79.97
31331;BME280;34067;39.548;-76.088;2023-02-23T05:51:01;101041.60;;;4.10;83.07
31331;BME280;34067;39.548;-76.088;2023-02-23T05:53:29;101046.41;;;3.78;82.40
31331;BME280;34067;39.548;-76.088;2023-02-23T05:55:58;101032.61;;;3.94;83.70
31331;BME280;34067;39.548;-76.088;2023-02-23T05:58:26;101016.05;;;2.08;89.43
31331;BME280;34067;39.548;-76.088;2023-02-23T06:03:09;100998.29;;;2.94;87.11
31331;BME280;34067;39.548;-76.088;2023-02-23T06:05:38;101007.35;;;2.99;84.03
31331;BME280;34067;39.548;-76.088;2023-02-23T06:08:06;101017.02;;;4.62;83.16
31331;BME280;34067;39.548;-76.088;2023-02-23T06:10:34;101019.20;;;5.38;79.83
31331;BME280;34067;39.548;-76.088;2023-02-23T06:13:01;100996.55;;;5.80;76.57
31331;BME280;34067;39.548;-76.088;2023-02-23T06:15:29;100987.57;;;5.73;76.81
31331;BME280;34067;39.548;-76.088;2023-02-23T06:17:57;100975.86;;;5.30;78.56
31331;BME280;34067;39.548;-76.088;2023-02-23T06:20:25;100966.27;;;5.41;76.27
31331;BME280;34067;39.548;-76.088;2023-02-23T06:22:53;100972.20;;;5.84;75.83
31331;BME280;34067;39.548;-76.088;2023-02-23T06:25:22;100969.30;;;6.51;71.69
31331;BME280;34067;39.548;-76.088;2023-02-23T06:27:50;100963.86;;;6.45;71.86
31331;BME280;34067;39.548;-76.088;2023-02-23T06:30:19;100965.03;;;7.35;69.42
31331;BME280;34067;39.548;-76.088;2023-02-23T06:32:47;100960.14;;;6.96;68.24
31331;BME280;34067;39.548;-76.088;2023-02-23T06:35:15;100966.01;;;6.60;70.08
31331;BME280;34067;39.548;-76.088;2023-02-23T06:37:43;100975.81;;;5.75;71.34
31331;BME280;34067;39.548;-76.088;2023-02-23T06:40:11;100974.48;;;6.40;71.86
31331;BME280;34067;39.548;-76.088;2023-02-23T06:42:39;100975.95;;;5.59;75.49
31331;BME280;34067;39.548;-76.088;2023-02-23T06:45:08;100979.92;;;6.10;75.32
31331;BME280;34067;39.548;-76.088;2023-02-23T06:47:36;100974.33;;;5.25;77.75
31331;BME280;34067;39.548;-76.088;2023-02-23T06:50:06;100948.86;;;5.85;76.79
31331;BME280;34067;39.548;-76.088;2023-02-23T06:52:34;100962.51;;;5.41;77.18
31331;BME280;34067;39.548;-76.088;2023-02-23T06:55:02;100977.55;;;6.18;76.66
31331;BME280;34067;39.548;-76.088;2023-02-23T06:57:30;100973.04;;;5.00;77.74
31331;BME280;34067;39.548;-76.088;2023-02-23T06:59:58;100967.47;;;5.47;76.63
31331;BME280;34067;39.548;-76.088;2023-02-23T07:02:26;100961.39;;;6.55;71.76
31331;BME280;34067;39.548;-76.088;2023-02-23T07:04:54;100935.77;;;7.06;70.32
31331;BME280;34067;39.548;-76.088;2023-02-23T07:07:22;100931.49;;;7.70;69.38
31331;BME280;34067;39.548;-76.088;2023-02-23T07:09:50;100927.80;;;7.39;68.00
31331;BME280;34067;39.548;-76.088;2023-02-23T07:12:18;100915.00;;;7.45;67.20
31331;BME280;34067;39.548;-76.088;2023-02-23T07:14:46;100902.45;;;7.35;67.27
31331;BME280;34067;39.548;-76.088;2023-02-23T07:17:14;100895.33;;;7.06;67.96
31331;BME280;34067;39.548;-76.088;2023-02-23T07:19:42;100880.34;;;6.57;69.10
31331;BME280;34067;39.548;-76.088;2023-02-23T07:22:10;100888.66;;;7.24;68.69
31331;BME280;34067;39.548;-76.088;2023-02-23T07:24:39;100887.38;;;6.81;67.49
31331;BME280;34067;39.548;-76.088;2023-02-23T07:27:08;100876.71;;;7.63;66.63
31331;BME280;34067;39.548;-76.088;2023-02-23T07:29:35;100870.96;;;6.96;66.81
31331;BME280;34067;39.548;-76.088;2023-02-23T07:32:05;100863.89;;;7.27;67.33
31331;BME280;34067;39.548;-76.088;2023-02-23T07:34:34;100863.44;;;7.34;67.28
31331;BME280;34067;39.548;-76.088;2023-02-23T07:37:02;100853.01;;;6.24;69.74
31331;BME280;34067;39.548;-76.088;2023-02-23T07:39:30;100853.27;;;7.41;68.34
31331;BME280;34067;39.548;-76.088;2023-02-23T07:41:58;100844.86;;;7.74;68.72
31331;BME280;34067;39.548;-76.088;2023-02-23T07:44:25;100839.82;;;5.77;71.23
31331;BME280;34067;39.548;-76.088;2023-02-23T07:46:53;100837.84;;;6.67;70.38
31331;BME280;34067;39.548;-76.088;2023-02-23T07:49:21;100847.94;;;6.48;70.75
31331;BME280;34067;39.548;-76.088;2023-02-23T07:51:49;100840.57;;;6.15;70.74
31331;BME280;34067;39.548;-76.088;2023-02-23T07:54:17;100835.87;;;6.85;70.12
31331;BME280;34067;39.548;-76.088;2023-02-23T07:56:45;100842.83;;;7.15;68.02
31331;BME280;34067;39.548;-76.088;2023-02-23T07:59:13;100838.09;;;7.24;67.67
31331;BME280;34067;39.548;-76.088;2023-02-23T08:01:41;100838.94;;;7.16;67.18
31331;BME280;34067;39.548;-76.088;2023-02-23T08:04:09;100852.92;;;7.70;66.86
31331;BME280;34067;39.548;-76.088;2023-02-23T08:06:37;100828.27;;;8.15;67.19
31331;BME280;34067;39.548;-76.088;2023-02-23T08:09:05;100833.13;;;6.68;68.46
31331;BME280;34067;39.548;-76.088;2023-02-23T08:11:33;100822.37;;;7.24;66.99
31331;BME280;34067;39.548;-76.088;2023-02-23T08:14:02;100807.88;;;7.61;66.41
31331;BME280;34067;39.548;-76.088;2023-02-23T08:16:31;100795.13;;;7.92;65.44
31331;BME280;34067;39.548;-76.088;2023-02-23T08:19:00;100787.30;;;7.24;66.59
31331;BME280;34067;39.548;-76.088;2023-02-23T08:21:29;100789.73;;;6.77;67.81
31331;BME280;34067;39.548;-76.088;2023-02-23T08:23:57;100794.44;;;6.77;67.76
31331;BME280;34067;39.548;-76.088;2023-02-23T08:26:25;100807.99;;;6.99;67.57
31331;BME280;34067;39.548;-76.088;2023-02-23T08:28:54;100805.43;;;7.03;67.93
31331;BME280;34067;39.548;-76.088;2023-02-23T08:31:22;100804.44;;;7.00;67.48
31331;BME280;34067;39.548;-76.088;2023-02-23T08:33:50;100812.25;;;6.69;69.11
31331;BME280;34067;39.548;-76.088;2023-02-23T08:36:18;100807.85;;;6.89;67.80
31331;BME280;34067;39.548;-76.088;2023-02-23T08:38:46;100804.14;;;6.45;68.03
31331;BME280;34067;39.548;-76.088;2023-02-23T08:41:15;100802.09;;;7.29;66.98
31331;BME280;34067;39.548;-76.088;2023-02-23T08:43:43;100802.85;;;7.92;66.74
31331;BME280;34067;39.548;-76.088;2023-02-23T08:46:11;100792.29;;;6.75;67.91
31331;BME280;34067;39.548;-76.088;2023-02-23T08:48:40;100796.63;;;7.38;67.38
31331;BME280;34067;39.548;-76.088;2023-02-23T08:51:08;100781.53;;;7.55;67.05
31331;BME280;34067;39.548;-76.088;2023-02-23T08:53:36;100790.85;;;7.58;65.99
31331;BME280;34067;39.548;-76.088;2023-02-23T08:56:06;100787.65;;;7.67;65.70
31331;BME280;34067;39.548;-76.088;2023-02-23T08:58:35;100796.50;;;7.51;66.91
31331;BME280;34067;39.548;-76.088;2023-02-23T09:01:03;100804.41;;;7.39;67.15
31331;BME280;34067;39.548;-76.088;2023-02-23T09:03:33;100809.83;;;7.56;67.06
31331;BME280;34067;39.548;-76.088;2023-02-23T09:06:08;100798.56;;;7.84;65.68
31331;BME280;34067;39.548;-76.088;2023-02-23T09:08:37;100801.80;;;8.05;65.15
31331;BME280;34067;39.548;-76.088;2023-02-23T09:11:05;100801.90;;;7.74;66.05
31331;BME280;34067;39.548;-76.088;2023-02-23T09:13:34;100807.77;;;7.33;65.86
31331;BME280;34067;39.548;-76.088;2023-02-23T09:16:03;100805.09;;;7.92;65.90
31331;BME280;34067;39.548;-76.088;2023-02-23T09:18:31;100797.94;;;7.78;65.10
31331;BME280;34067;39.548;-76.088;2023-02-23T09:21:00;100801.92;;;7.55;65.04
31331;BME280;34067;39.548;-76.088;2023-02-23T09:23:29;100808.02;;;7.57;65.52
31331;BME280;34067;39.548;-76.088;2023-02-23T09:26:02;100810.96;;;7.58;64.65
31331;BME280;34067;39.548;-76.088;2023-02-23T09:28:31;100798.97;;;8.13;64.27
31331;BME280;34067;39.548;-76.088;2023-02-23T09:31:04;100803.92;;;8.12;64.19
31331;BME280;34067;39.548;-76.088;2023-02-23T09:33:32;100803.96;;;8.13;63.94
31331;BME280;34067;39.548;-76.088;2023-02-23T09:36:05;100816.99;;;7.68;63.82
31331;BME280;34067;39.548;-76.088;2023-02-23T09:38:33;100821.13;;;7.25;63.99
31331;BME280;34067;39.548;-76.088;2023-02-23T09:41:01;100818.90;;;8.26;63.91
31331;BME280;34067;39.548;-76.088;2023-02-23T09:43:35;100811.00;;;7.75;64.64
31331;BME280;34067;39.548;-76.088;2023-02-23T09:46:16;100794.92;;;6.94;65.26
31331;BME280;34067;39.548;-76.088;2023-02-23T09:48:49;100803.75;;;7.30;65.71
31331;BME280;34067;39.548;-76.088;2023-02-23T09:51:18;100806.81;;;7.88;64.95
31331;BME280;34067;39.548;-76.088;2023-02-23T09:53:51;100830.50;;;8.03;64.88
31331;BME280;34067;39.548;-76.088;2023-02-23T09:56:28;100830.52;;;7.43;66.39
31331;BME280;34067;39.548;-76.088;2023-02-23T09:58:58;100843.47;;;7.13;68.39
31331;BME280;34067;39.548;-76.088;2023-02-23T10:02:04;100862.40;;;6.35;70.92
31331;BME280;34067;39.548;-76.088;2023-02-23T10:04:40;100868.30;;;6.34;71.70
31331;BME280;34067;39.548;-76.088;2023-02-23T10:07:14;100876.17;;;6.15;74.12
31331;BME280;34067;39.548;-76.088;2023-02-23T10:09:54;100878.12;;;5.92;76.47
31331;BME280;34067;39.548;-76.088;2023-02-23T10:12:31;100873.02;;;5.57;78.91
31331;BME280;34067;39.548;-76.088;2023-02-23T10:15:15;100875.38;;;4.79;85.08
31331;BME280;34067;39.548;-76.088;2023-02-23T10:17:57;100901.86;;;3.37;92.27
31331;BME280;34067;39.548;-76.088;2023-02-23T10:20:33;100899.95;;;4.91;88.19
31331;BME280;34067;39.548;-76.088;2023-02-23T10:23:08;100901.28;;;3.95;91.53
31331;BME280;34067;39.548;-76.088;2023-02-23T10:25:42;100902.43;;;5.01;89.45
31331;BME280;34067;39.548;-76.088;2023-02-23T10:28:15;100891.41;;;4.66;85.75
31331;BME280;34067;39.548;-76.088;2023-02-23T10:30:45;100884.10;;;5.56;82.73
31331;BME280;34067;39.548;-76.088;2023-02-23T10:33:15;100882.59;;;4.57;81.13
31331;BME280;34067;39.548;-76.088;2023-02-23T10:35:47;100896.54;;;6.55;79.36
31331;BME280;34067;39.548;-76.088;2023-02-23T10:38:18;100894.73;;;5.27;83.50
31331;BME280;34067;39.548;-76.088;2023-02-23T10:40:52;100903.12;;;4.81;88.99
31331;BME280;34067;39.548;-76.088;2023-02-23T10:43:22;100900.65;;;3.00;96.28
31331;BME280;34067;39.548;-76.088;2023-02-23T10:45:51;100899.00;;;4.49;88.72
31331;BME280;34067;39.548;-76.088;2023-02-23T10:48:22;100907.86;;;4.84;91.39
31331;BME280;34067;39.548;-76.088;2023-02-23T10:50:54;100901.05;;;4.15;91.16
31331;BME280;34067;39.548;-76.088;2023-02-23T10:53:25;100891.29;;;4.56;90.01
31331;BME280;34067;39.548;-76.088;2023-02-23T10:56:02;100893.38;;;4.91;88.34
31331;BME280;34067;39.548;-76.088;2023-02-23T10:58:40;100918.21;;;3.44;95.14
31331;BME280;34067;39.548;-76.088;2023-02-23T11:01:09;100932.05;;;2.65;97.28
31331;BME280;34067;39.548;-76.088;2023-02-23T11:03:39;100929.82;;;2.63;100.00
31331;BME280;34067;39.548;-76.088;2023-02-23T11:06:28;100909.67;;;1.87;100.00
31331;BME280;34067;39.548;-76.088;2023-02-23T11:08:57;100915.54;;;5.28;94.13
31331;BME280;34067;39.548;-76.088;2023-02-23T11:11:27;100912.32;;;5.19;90.66
31331;BME280;34067;39.548;-76.088;2023-02-23T11:13:55;100915.78;;;5.11;89.33
31331;BME280;34067;39.548;-76.088;2023-02-23T11:16:27;100919.56;;;5.05;87.78
31331;BME280;34067;39.548;-76.088;2023-02-23T11:18:57;100902.29;;;5.67;85.23
31331;BME280;34067;39.548;-76.088;2023-02-23T11:21:27;100916.55;;;6.23;80.34
31331;BME280;34067;39.548;-76.088;2023-02-23T11:23:58;100917.92;;;6.68;77.76
31331;BME280;34067;39.548;-76.088;2023-02-23T11:26:34;100930.14;;;6.55;78.41
31331;BME280;34067;39.548;-76.088;2023-02-23T11:29:13;100927.05;;;6.73;77.15
31331;BME280;34067;39.548;-76.088;2023-02-23T11:31:47;100921.66;;;7.41;74.57
31331;BME280;34067;39.548;-76.088;2023-02-23T11:34:26;100902.10;;;6.88;74.75
31331;BME280;34067;39.548;-76.088;2023-02-23T11:37:01;100921.66;;;7.06;72.46
31331;BME280;34067;39.548;-76.088;2023-02-23T11:39:29;100913.75;;;7.15;72.23
31331;BME280;34067;39.548;-76.088;2023-02-23T11:42:13;100900.56;;;7.83;71.08
31331;BME280;34067;39.548;-76.088;2023-02-23T11:44:42;100914.68;;;7.04;72.61
31331;BME280;34067;39.548;-76.088;2023-02-23T11:47:19;100901.35;;;6.87;71.93
31331;BME280;34067;39.548;-76.088;2023-02-23T11:49:49;100911.01;;;7.39;70.53
31331;BME280;34067;39.548;-76.088;2023-02-23T11:52:20;100927.81;;;7.83;69.36
31331;BME280;34067;39.548;-76.088;2023-02-23T11:54:53;100918.48;;;7.30;69.83
31331;BME280;34067;39.548;-76.088;2023-02-23T11:57:26;100931.67;;;8.12;68.00
31331;BME280;34067;39.548;-76.088;2023-02-23T11:59:56;100954.03;;;7.78;68.30
31331;BME280;34067;39.548;-76.088;2023-02-23T12:02:26;100964.27;;;7.48;69.40
31331;BME280;34067;39.548;-76.088;2023-02-23T12:05:04;100948.47;;;6.60;70.82
31331;BME280;34067;39.548;-76.088;2023-02-23T12:07:38;100993.36;;;6.92;70.05
31331;BME280;34067;39.548;-76.088;2023-02-23T12:10:13;100993.14;;;4.67;77.17
31331;BME280;34067;39.548;-76.088;2023-02-23T12:12:50;101016.12;;;4.35;81.36
31331;BME280;34067;39.548;-76.088;2023-02-23T12:15:27;101021.17;;;5.51;80.09
31331;BME280;34067;39.548;-76.088;2023-02-23T12:17:59;101027.27;;;4.22;89.43
31331;BME280;34067;39.548;-76.088;2023-02-23T12:20:36;101034.54;;;4.02;93.28
31331;BME280;34067;39.548;-76.088;2023-02-23T12:23:09;101035.80;;;3.07;98.46
31331;BME280;34067;39.548;-76.088;2023-02-23T12:25:44;101041.23;;;3.37;100.00
31331;BME280;34067;39.548;-76.088;2023-02-23T12:28:21;101042.97;;;3.03;100.00
31331;BME280;34067;39.548;-76.088;2023-02-23T12:30:57;101046.58;;;3.94;98.31
31331;BME280;34067;39.548;-76.088;2023-02-23T12:33:31;101065.29;;;3.13;98.52
31331;BME280;34067;39.548;-76.088;2023-02-23T12:36:05;101069.79;;;3.07;98.52
31331;BME280;34067;39.548;-76.088;2023-02-23T12:38:49;101073.25;;;2.65;100.00
31331;BME280;34067;39.548;-76.088;2023-02-23T12:41:29;101084.23;;;3.07;100.00
31331;BME280;34067;39.548;-76.088;2023-02-23T12:44:03;101086.54;;;2.47;100.00
31331;BME280;34067;39.548;-76.088;2023-02-23T12:46:41;101074.63;;;3.37;96.01
31331;BME280;34067;39.548;-76.088;2023-02-23T12:49:18;101088.34;;;3.60;97.31
31331;BME280;34067;39.548;-76.088;2023-02-23T12:51:52;101069.93;;;2.98;94.82
31331;BME280;34067;39.548;-76.088;2023-02-23T12:54:22;101069.70;;;4.47;92.67
31331;BME280;34067;39.548;-76.088;2023-02-23T12:57:00;101063.12;;;3.53;92.21
31331;BME280;34067;39.548;-76.088;2023-02-23T12:59:46;101066.07;;;4.96;90.20
31331;BME280;34067;39.548;-76.088;2023-02-23T13:02:23;101056.73;;;4.93;87.93
31331;BME280;34067;39.548;-76.088;2023-02-23T13:05:09;101076.14;;;3.92;89.97
31331;BME280;34067;39.548;-76.088;2023-02-23T13:07:48;101063.68;;;4.07;93.42